sensor_id;sensor_type;location;lat;lon;timestamp;temperature;humidity
9723;DHT22;4900;49.306;8.500;2023-02-11T00:01:33;1.24;77.07
9723;DHT22;4900;49.306;8.500;2023-02-11T00:04:36;1.28;77.05
9723;DHT22;4900;49.306;8.500;2023-02-11T00:07:39;1.34;77.05
9723;DHT22;4900;49.306;8.500;2023-02-11T00:10:42;1.40;76.93
9723;DHT22;4900;49.306;8.500;2023-02-11T00:13:48;1.44;76.94
9723;DHT22;4900;49.306;8.500;2023-02-11T00:16:51;1.54;76.73
9723;DHT22;4900;49.306;8.500;2023-02-11T00:19:54;1.56;76.57
9723;DHT22;4900;49.306;8.500;2023-02-11T00:22:57;1.63;76.45
9723;DHT22;4900;49.306;8.500;2023-02-11T00:26:00;1.66;76.45
9723;DHT22;4900;49.306;8.500;2023-02-11T00:29:03;1.69;76.45
9723;DHT22;4900;49.306;8.500;2023-02-11T00:32:08;1.75;76.22
9723;DHT22;4900;49.306;8.500;2023-02-11T00:35:12;1.73;76.05
9723;DHT22;4900;49.306;8.500;2023-02-11T00:38:15;1.76;76.06
9723;DHT22;4900;49.306;8.500;2023-02-11T00:41:18;1.76;76.04
9723;DHT22;4900;49.306;8.500;2023-02-11T00:44:22;1.73;76.11
9723;DHT22;4900;49.306;8.500;2023-02-11T00:47:25;1.78;75.98
9723;DHT22;4900;49.306;8.500;2023-02-11T00:50:28;1.80;75.87
9723;DHT22;4900;49.306;8.500;2023-02-11T00:53:31;1.79;75.92
9723;DHT22;4900;49.306;8.500;2023-02-11T00:56:34;1.79;75.80
9723;DHT22;4900;49.306;8.500;2023-02-11T00:59:37;1.87;75.58
9723;DHT22;4900;49.306;8.500;2023-02-11T01:02:40;1.91;75.40
9723;DHT22;4900;49.306;8.500;2023-02-11T01:05:43;1.90;75.35
9723;DHT22;4900;49.306;8.500;2023-02-11T01:08:45;1.93;75.23
9723;DHT22;4900;49.306;8.500;2023-02-11T01:11:49;1.96;74.91
9723;DHT22;4900;49.306;8.500;2023-02-11T01:14:51;1.98;74.80
9723;DHT22;4900;49.306;8.500;2023-02-11T01:17:54;1.96;74.68
9723;DHT22;4900;49.306;8.500;2023-02-11T01:20:58;2.00;74.47
9723;DHT22;4900;49.306;8.500;2023-02-11T01:24:01;1.96;74.46
9723;DHT22;4900;49.306;8.500;2023-02-11T01:27:04;1.98;74.49
9723;DHT22;4900;49.306;8.500;2023-02-11T01:30:08;1.98;74.43
9723;DHT22;4900;49.306;8.500;2023-02-11T01:33:12;1.96;74.38
9723;DHT22;4900;49.306;8.500;2023-02-11T01:36:15;1.94;74.46
9723;DHT22;4900;49.306;8.500;2023-02-11T01:39:18;1.90;74.49
9723;DHT22;4900;49.306;8.500;2023-02-11T01:42:22;1.90;74.65
9723;DHT22;4900;49.306;8.500;2023-02-11T01:45:54;1.89;74.92
9723;DHT22;4900;49.306;8.500;2023-02-11T01:49:07;1.89;75.13
9723;DHT22;4900;49.306;8.500;2023-02-11T01:55:21;1.97;75.07
9723;DHT22;4900;49.306;8.500;2023-02-11T01:58:44;2.00;74.98
9723;DHT22;4900;49.306;8.500;2023-02-11T02:01:52;2.04;75.05
9723;DHT22;4900;49.306;8.500;2023-02-11T02:09:04;2.03;75.33
9723;DHT22;4900;49.306;8.500;2023-02-11T02:12:08;2.03;75.16
9723;DHT22;4900;49.306;8.500;2023-02-11T02:15:27;2.03;75.50
9723;DHT22;4900;49.306;8.500;2023-02-11T02:29:17;2.11;75.19
9723;DHT22;4900;49.306;8.500;2023-02-11T02:36:48;2.07;75.22
9723;DHT22;4900;49.306;8.500;2023-02-11T02:39:54;2.10;75.16
9723;DHT22;4900;49.306;8.500;2023-02-11T02:42:59;2.11;75.19
9723;DHT22;4900;49.306;8.500;2023-02-11T02:46:11;2.04;75.43
9723;DHT22;4900;49.306;8.500;2023-02-11T02:49:15;2.06;75.63
9723;DHT22;4900;49.306;8.500;2023-02-11T02:59:16;1.97;75.91
9723;DHT22;4900;49.306;8.500;2023-02-11T03:06:00;1.96;75.99
9723;DHT22;4900;49.306;8.500;2023-02-11T03:12:36;2.00;75.75
9723;DHT22;4900;49.306;8.500;2023-02-11T03:15:43;2.00;75.78
9723;DHT22;4900;49.306;8.500;2023-02-11T03:18:52;2.03;75.75
9723;DHT22;4900;49.306;8.500;2023-02-11T03:21:58;2.01;75.70
9723;DHT22;4900;49.306;8.500;2023-02-11T03:25:02;2.04;75.61
9723;DHT22;4900;49.306;8.500;2023-02-11T03:28:21;2.06;75.65
9723;DHT22;4900;49.306;8.500;2023-02-11T03:31:36;2.00;75.69
9723;DHT22;4900;49.306;8.500;2023-02-11T03:35:04;2.04;75.89
9723;DHT22;4900;49.306;8.500;2023-02-11T03:38:16;2.03;75.96
9723;DHT22;4900;49.306;8.500;2023-02-11T03:41:23;2.04;75.73
9723;DHT22;4900;49.306;8.500;2023-02-11T03:44:31;2.08;75.68
9723;DHT22;4900;49.306;8.500;2023-02-11T03:47:39;2.15;75.66
9723;DHT22;4900;49.306;8.500;2023-02-11T03:50:45;2.17;75.39
9723;DHT22;4900;49.306;8.500;2023-02-11T03:53:52;2.18;75.31
9723;DHT22;4900;49.306;8.500;2023-02-11T03:56:59;2.21;75.19
9723;DHT22;4900;49.306;8.500;2023-02-11T04:00:04;2.22;75.27
9723;DHT22;4900;49.306;8.500;2023-02-11T04:03:08;2.24;75.17
9723;DHT22;4900;49.306;8.500;2023-02-11T04:06:11;2.17;75.40
9723;DHT22;4900;49.306;8.500;2023-02-11T04:09:14;2.17;75.41
9723;DHT22;4900;49.306;8.500;2023-02-11T04:12:17;2.15;75.28
9723;DHT22;4900;49.306;8.500;2023-02-11T04:15:20;2.18;75.31
9723;DHT22;4900;49.306;8.500;2023-02-11T04:18:23;2.13;75.43
9723;DHT22;4900;49.306;8.500;2023-02-11T04:21:26;2.14;75.58
9723;DHT22;4900;49.306;8.500;2023-02-11T04:24:29;2.13;75.40
9723;DHT22;4900;49.306;8.500;2023-02-11T04:27:32;2.14;75.70
9723;DHT22;4900;49.306;8.500;2023-02-11T04:30:35;2.11;75.74
9723;DHT22;4900;49.306;8.500;2023-02-11T04:33:38;2.10;75.71
9723;DHT22;4900;49.306;8.500;2023-02-11T04:36:41;2.14;75.73
9723;DHT22;4900;49.306;8.500;2023-02-11T04:39:44;2.13;75.80
9723;DHT22;4900;49.306;8.500;2023-02-11T04:42:47;2.11;75.79
9723;DHT22;4900;49.306;8.500;2023-02-11T04:45:50;2.13;75.84
9723;DHT22;4900;49.306;8.500;2023-02-11T04:48:53;2.17;75.63
9723;DHT22;4900;49.306;8.500;2023-02-11T04:51:56;2.14;75.56
9723;DHT22;4900;49.306;8.500;2023-02-11T04:55:00;2.13;75.59
9723;DHT22;4900;49.306;8.500;2023-02-11T04:58:02;2.13;75.67
9723;DHT22;4900;49.306;8.500;2023-02-11T05:01:11;2.08;75.86
9723;DHT22;4900;49.306;8.500;2023-02-11T05:04:15;2.08;75.76
9723;DHT22;4900;49.306;8.500;2023-02-11T05:07:18;2.07;75.83
9723;DHT22;4900;49.306;8.500;2023-02-11T05:10:21;2.01;75.96
9723;DHT22;4900;49.306;8.500;2023-02-11T05:13:24;2.03;75.90
9723;DHT22;4900;49.306;8.500;2023-02-11T05:16:27;2.00;75.86
9723;DHT22;4900;49.306;8.500;2023-02-11T05:19:30;2.00;75.78
9723;DHT22;4900;49.306;8.500;2023-02-11T05:22:34;1.96;75.92
9723;DHT22;4900;49.306;8.500;2023-02-11T05:25:37;1.96;75.82
9723;DHT22;4900;49.306;8.500;2023-02-11T05:28:40;1.91;75.66
9723;DHT22;4900;49.306;8.500;2023-02-11T05:31:43;1.87;75.71
9723;DHT22;4900;49.306;8.500;2023-02-11T05:34:46;1.78;75.86
9723;DHT22;4900;49.306;8.500;2023-02-11T05:37:50;1.73;75.99
9723;DHT22;4900;49.306;8.500;2023-02-11T05:40:53;1.66;76.36
9723;DHT22;4900;49.306;8.500;2023-02-11T05:43:56;1.63;76.60
9723;DHT22;4900;49.306;8.500;2023-02-11T05:46:59;1.58;76.61
9723;DHT22;4900;49.306;8.500;2023-02-11T05:50:02;1.59;76.48
9723;DHT22;4900;49.306;8.500;2023-02-11T05:53:05;1.52;76.61
9723;DHT22;4900;49.306;8.500;2023-02-11T05:56:09;1.50;76.89
9723;DHT22;4900;49.306;8.500;2023-02-11T05:59:13;1.44;77.02
9723;DHT22;4900;49.306;8.500;2023-02-11T06:02:16;1.45;77.04
9723;DHT22;4900;49.306;8.500;2023-02-11T06:05:19;1.40;77.13
9723;DHT22;4900;49.306;8.500;2023-02-11T06:08:22;1.41;76.97
9723;DHT22;4900;49.306;8.500;2023-02-11T06:11:25;1.38;77.06
9723;DHT22;4900;49.306;8.500;2023-02-11T06:14:28;1.35;77.27
9723;DHT22;4900;49.306;8.500;2023-02-11T06:17:31;1.38;77.36
9723;DHT22;4900;49.306;8.500;2023-02-11T06:20:35;1.38;77.40
9723;DHT22;4900;49.306;8.500;2023-02-11T06:23:39;1.40;77.55
9723;DHT22;4900;49.306;8.500;2023-02-11T06:26:42;1.41;77.69
9723;DHT22;4900;49.306;8.500;2023-02-11T06:29:45;1.45;77.70
9723;DHT22;4900;49.306;8.500;2023-02-11T06:32:48;1.51;77.54
9723;DHT22;4900;49.306;8.500;2023-02-11T06:35:51;1.54;77.42
9723;DHT22;4900;49.306;8.500;2023-02-11T06:38:54;1.58;77.32
9723;DHT22;4900;49.306;8.500;2023-02-11T06:41:57;1.58;77.24
9723;DHT22;4900;49.306;8.500;2023-02-11T06:45:00;1.59;77.15
9723;DHT22;4900;49.306;8.500;2023-02-11T06:48:04;1.63;76.99
9723;DHT22;4900;49.306;8.500;2023-02-11T06:51:09;1.66;76.86
9723;DHT22;4900;49.306;8.500;2023-02-11T06:54:12;1.72;76.61
9723;DHT22;4900;49.306;8.500;2023-02-11T06:57:14;1.70;76.64
9723;DHT22;4900;49.306;8.500;2023-02-11T07:00:17;1.76;76.34
9723;DHT22;4900;49.306;8.500;2023-02-11T07:03:21;1.79;76.07
9723;DHT22;4900;49.306;8.500;2023-02-11T07:06:25;1.80;76.03
9723;DHT22;4900;49.306;8.500;2023-02-11T07:09:29;1.76;76.00
9723;DHT22;4900;49.306;8.500;2023-02-11T07:12:32;1.73;76.09
9723;DHT22;4900;49.306;8.500;2023-02-11T07:15:36;1.73;76.08
9723;DHT22;4900;49.306;8.500;2023-02-11T07:18:40;1.80;75.86
9723;DHT22;4900;49.306;8.500;2023-02-11T07:21:43;1.83;75.73
9723;DHT22;4900;49.306;8.500;2023-02-11T07:24:46;1.83;75.79
9723;DHT22;4900;49.306;8.500;2023-02-11T07:27:49;1.86;75.67
9723;DHT22;4900;49.306;8.500;2023-02-11T07:30:53;1.83;75.69
9723;DHT22;4900;49.306;8.500;2023-02-11T07:33:58;1.85;75.73
9723;DHT22;4900;49.306;8.500;2023-02-11T07:37:02;1.86;75.64
9723;DHT22;4900;49.306;8.500;2023-02-11T07:40:06;1.85;75.63
9723;DHT22;4900;49.306;8.500;2023-02-11T07:43:09;1.83;75.68
9723;DHT22;4900;49.306;8.500;2023-02-11T07:46:15;1.87;75.50
9723;DHT22;4900;49.306;8.500;2023-02-11T07:49:18;1.90;75.41
9723;DHT22;4900;49.306;8.500;2023-02-11T07:52:21;1.91;75.45
9723;DHT22;4900;49.306;8.500;2023-02-11T07:55:25;1.90;75.31
9723;DHT22;4900;49.306;8.500;2023-02-11T07:58:28;1.91;75.42
9723;DHT22;4900;49.306;8.500;2023-02-11T08:01:32;2.01;75.23
9723;DHT22;4900;49.306;8.500;2023-02-11T08:04:35;2.10;75.15
9723;DHT22;4900;49.306;8.500;2023-02-11T08:07:39;2.18;74.92
9723;DHT22;4900;49.306;8.500;2023-02-11T08:10:41;2.21;74.77
9723;DHT22;4900;49.306;8.500;2023-02-11T08:13:45;2.27;74.79
9723;DHT22;4900;49.306;8.500;2023-02-11T08:16:48;2.37;74.57
9723;DHT22;4900;49.306;8.500;2023-02-11T08:19:51;2.41;74.22
9723;DHT22;4900;49.306;8.500;2023-02-11T08:22:53;2.55;73.99
9723;DHT22;4900;49.306;8.500;2023-02-11T08:26:22;2.65;73.84
9723;DHT22;4900;49.306;8.500;2023-02-11T08:29:24;2.72;73.57
9723;DHT22;4900;49.306;8.500;2023-02-11T08:32:26;2.81;73.44
9723;DHT22;4900;49.306;8.500;2023-02-11T08:35:30;2.96;73.05
9723;DHT22;4900;49.306;8.500;2023-02-11T08:38:34;3.05;72.83
9723;DHT22;4900;49.306;8.500;2023-02-11T08:41:38;3.21;72.50
9723;DHT22;4900;49.306;8.500;2023-02-11T08:44:42;3.33;72.25
9723;DHT22;4900;49.306;8.500;2023-02-11T08:47:45;3.42;71.99
9723;DHT22;4900;49.306;8.500;2023-02-11T08:50:48;3.62;71.60
9723;DHT22;4900;49.306;8.500;2023-02-11T08:53:53;3.73;71.17
9723;DHT22;4900;49.306;8.500;2023-02-11T08:56:56;3.81;70.84
9723;DHT22;4900;49.306;8.500;2023-02-11T09:00:00;3.90;70.63
9723;DHT22;4900;49.306;8.500;2023-02-11T09:03:03;4.01;70.22
9723;DHT22;4900;49.306;8.500;2023-02-11T09:06:08;4.05;70.06
9723;DHT22;4900;49.306;8.500;2023-02-11T09:09:13;4.08;70.12
9723;DHT22;4900;49.306;8.500;2023-02-11T09:12:17;4.18;69.91
9723;DHT22;4900;49.306;8.500;2023-02-11T09:15:20;4.25;69.78
9723;DHT22;4900;49.306;8.500;2023-02-11T09:18:25;4.43;69.44
9723;DHT22;4900;49.306;8.500;2023-02-11T09:21:30;4.57;69.12
9723;DHT22;4900;49.306;8.500;2023-02-11T09:24:33;4.74;68.91
9723;DHT22;4900;49.306;8.500;2023-02-11T09:27:36;5.06;68.29
9723;DHT22;4900;49.306;8.500;2023-02-11T09:30:39;5.48;67.42
9723;DHT22;4900;49.306;8.500;2023-02-11T09:33:45;5.98;66.47
9723;DHT22;4900;49.306;8.500;2023-02-11T09:36:51;6.51;65.96
9723;DHT22;4900;49.306;8.500;2023-02-11T09:39:55;6.85;64.12
9723;DHT22;4900;49.306;8.500;2023-02-11T09:46:04;7.54;62.14
9723;DHT22;4900;49.306;8.500;2023-02-11T09:49:17;7.78;60.89
9723;DHT22;4900;49.306;8.500;2023-02-11T09:56:10;8.75;59.21
9723;DHT22;4900;49.306;8.500;2023-02-11T09:59:15;9.06;57.95
9723;DHT22;4900;49.306;8.500;2023-02-11T10:02:30;9.44;57.06
9723;DHT22;4900;49.306;8.500;2023-02-11T10:05:47;9.87;56.68
9723;DHT22;4900;49.306;8.500;2023-02-11T10:19:12;11.36;53.11
9723;DHT22;4900;49.306;8.500;2023-02-11T10:22:26;11.77;51.59
9723;DHT22;4900;49.306;8.500;2023-02-11T10:25:33;12.11;51.84
9723;DHT22;4900;49.306;8.500;2023-02-11T10:28:39;12.13;50.94
9723;DHT22;4900;49.306;8.500;2023-02-11T10:31:44;12.08;50.82
9723;DHT22;4900;49.306;8.500;2023-02-11T10:34:49;12.43;50.99
9723;DHT22;4900;49.306;8.500;2023-02-11T10:37:53;12.49;50.46
9723;DHT22;4900;49.306;8.500;2023-02-11T10:40:59;12.57;50.08
9723;DHT22;4900;49.306;8.500;2023-02-11T10:44:05;12.42;49.82
9723;DHT22;4900;49.306;8.500;2023-02-11T10:47:19;12.64;50.33
9723;DHT22;4900;49.306;8.500;2023-02-11T10:50:29;12.64;49.83
9723;DHT22;4900;49.306;8.500;2023-02-11T10:53:33;12.71;49.43
9723;DHT22;4900;49.306;8.500;2023-02-11T10:56:46;13.19;49.04
9723;DHT22;4900;49.306;8.500;2023-02-11T10:59:57;13.44;48.63
9723;DHT22;4900;49.306;8.500;2023-02-11T11:03:03;13.60;47.93
9723;DHT22;4900;49.306;8.500;2023-02-11T11:06:08;13.47;47.80
9723;DHT22;4900;49.306;8.500;2023-02-11T11:09:27;13.69;47.65
9723;DHT22;4900;49.306;8.500;2023-02-11T11:12:34;13.49;48.15
9723;DHT22;4900;49.306;8.500;2023-02-11T11:15:38;13.21;48.15
9723;DHT22;4900;49.306;8.500;2023-02-11T11:18:52;13.26;48.25
9723;DHT22;4900;49.306;8.500;2023-02-11T11:21:55;13.42;48.28
9723;DHT22;4900;49.306;8.500;2023-02-11T11:24:58;13.78;48.37
9723;DHT22;4900;49.306;8.500;2023-02-11T11:28:03;13.95;47.64
9723;DHT22;4900;49.306;8.500;2023-02-11T11:31:16;14.18;48.07
9723;DHT22;4900;49.306;8.500;2023-02-11T11:34:35;14.61;47.43
9723;DHT22;4900;49.306;8.500;2023-02-11T11:37:40;15.01;46.93
9723;DHT22;4900;49.306;8.500;2023-02-11T11:40:44;15.19;46.75
9723;DHT22;4900;49.306;8.500;2023-02-11T11:47:24;15.40;45.46
9723;DHT22;4900;49.306;8.500;2023-02-11T11:50:36;15.36;45.35
9723;DHT22;4900;49.306;8.500;2023-02-11T11:53:55;15.70;45.32
9723;DHT22;4900;49.306;8.500;2023-02-11T11:57:11;15.79;45.88
9723;DHT22;4900;49.306;8.500;2023-02-11T12:00:20;15.84;45.94
9723;DHT22;4900;49.306;8.500;2023-02-11T12:10:30;15.40;46.59
9723;DHT22;4900;49.306;8.500;2023-02-11T12:17:43;15.73;46.69
9723;DHT22;4900;49.306;8.500;2023-02-11T12:24:29;16.46;46.15
9723;DHT22;4900;49.306;8.500;2023-02-11T12:31:18;16.83;45.58
9723;DHT22;4900;49.306;8.500;2023-02-11T12:38:35;16.96;45.49
9723;DHT22;4900;49.306;8.500;2023-02-11T12:51:32;16.75;45.93
9723;DHT22;4900;49.306;8.500;2023-02-11T12:54:43;16.37;45.54
9723;DHT22;4900;49.306;8.500;2023-02-11T12:57:50;16.30;46.19
9723;DHT22;4900;49.306;8.500;2023-02-11T13:00:59;16.18;45.52
9723;DHT22;4900;49.306;8.500;2023-02-11T13:07:38;15.40;46.69
9723;DHT22;4900;49.306;8.500;2023-02-11T13:10:49;15.51;47.01
9723;DHT22;4900;49.306;8.500;2023-02-11T13:16:58;15.61;47.17
9723;DHT22;4900;49.306;8.500;2023-02-11T13:20:34;15.49;46.85
9723;DHT22;4900;49.306;8.500;2023-02-11T13:24:13;15.70;47.70
9723;DHT22;4900;49.306;8.500;2023-02-11T13:27:50;15.51;47.52
9723;DHT22;4900;49.306;8.500;2023-02-11T13:31:00;15.32;47.64
9723;DHT22;4900;49.306;8.500;2023-02-11T13:34:23;15.33;47.65
9723;DHT22;4900;49.306;8.500;2023-02-11T13:37:33;15.25;48.16
9723;DHT22;4900;49.306;8.500;2023-02-11T13:40:37;15.14;48.10
9723;DHT22;4900;49.306;8.500;2023-02-11T13:43:41;14.95;48.55
9723;DHT22;4900;49.306;8.500;2023-02-11T13:46:54;14.91;48.64
9723;DHT22;4900;49.306;8.500;2023-02-11T13:49:59;14.94;48.96
9723;DHT22;4900;49.306;8.500;2023-02-11T13:53:04;14.83;49.13
9723;DHT22;4900;49.306;8.500;2023-02-11T13:56:22;14.89;49.02
9723;DHT22;4900;49.306;8.500;2023-02-11T14:02:33;14.78;49.53
9723;DHT22;4900;49.306;8.500;2023-02-11T14:09:35;14.81;49.70
9723;DHT22;4900;49.306;8.500;2023-02-11T14:12:39;14.69;49.65
9723;DHT22;4900;49.306;8.500;2023-02-11T14:15:45;14.64;49.70
9723;DHT22;4900;49.306;8.500;2023-02-11T14:22:04;14.23;50.46
9723;DHT22;4900;49.306;8.500;2023-02-11T14:25:26;14.18;50.78
9723;DHT22;4900;49.306;8.500;2023-02-11T14:28:29;13.98;51.04
9723;DHT22;4900;49.306;8.500;2023-02-11T14:31:44;13.78;51.30
9723;DHT22;4900;49.306;8.500;2023-02-11T14:41:48;13.40;52.00
9723;DHT22;4900;49.306;8.500;2023-02-11T14:44:57;13.24;52.63
9723;DHT22;4900;49.306;8.500;2023-02-11T14:48:07;13.04;52.97
9723;DHT22;4900;49.306;8.500;2023-02-11T14:51:20;12.85;53.72
9723;DHT22;4900;49.306;8.500;2023-02-11T14:54:26;12.70;54.04
9723;DHT22;4900;49.306;8.500;2023-02-11T14:57:29;12.50;54.58
9723;DHT22;4900;49.306;8.500;2023-02-11T15:00:33;12.42;54.82
9723;DHT22;4900;49.306;8.500;2023-02-11T15:03:41;12.29;55.11
9723;DHT22;4900;49.306;8.500;2023-02-11T15:06:46;12.17;55.45
9723;DHT22;4900;49.306;8.500;2023-02-11T15:09:52;12.02;55.76
9723;DHT22;4900;49.306;8.500;2023-02-11T15:12:57;11.91;55.96
9723;DHT22;4900;49.306;8.500;2023-02-11T15:16:05;11.79;56.29
9723;DHT22;4900;49.306;8.500;2023-02-11T15:19:22;11.62;56.68
9723;DHT22;4900;49.306;8.500;2023-02-11T15:22:32;11.49;57.35
9723;DHT22;4900;49.306;8.500;2023-02-11T15:25:42;11.36;57.70
9723;DHT22;4900;49.306;8.500;2023-02-11T15:28:46;11.26;57.78
9723;DHT22;4900;49.306;8.500;2023-02-11T15:32:13;11.14;57.45
9723;DHT22;4900;49.306;8.500;2023-02-11T15:35:17;11.08;58.02
9723;DHT22;4900;49.306;8.500;2023-02-11T15:38:20;11.00;57.97
9723;DHT22;4900;49.306;8.500;2023-02-11T15:41:34;10.94;57.88
9723;DHT22;4900;49.306;8.500;2023-02-11T15:44:38;10.87;58.18
9723;DHT22;4900;49.306;8.500;2023-02-11T15:48:11;10.81;57.86
9723;DHT22;4900;49.306;8.500;2023-02-11T15:51:34;10.76;57.95
9723;DHT22;4900;49.306;8.500;2023-02-11T15:54:39;10.69;58.29
9723;DHT22;4900;49.306;8.500;2023-02-11T15:57:46;10.65;58.45
9723;DHT22;4900;49.306;8.500;2023-02-11T16:00:52;10.53;59.01
9723;DHT22;4900;49.306;8.500;2023-02-11T16:04:02;10.49;58.93
9723;DHT22;4900;49.306;8.500;2023-02-11T16:11:02;10.29;59.32
9723;DHT22;4900;49.306;8.500;2023-02-11T16:17:31;10.10;59.61
9723;DHT22;4900;49.306;8.500;2023-02-11T16:20:34;10.01;60.29
9723;DHT22;4900;49.306;8.500;2023-02-11T16:23:38;9.97;60.57
9723;DHT22;4900;49.306;8.500;2023-02-11T16:26:47;9.90;60.70
9723;DHT22;4900;49.306;8.500;2023-02-11T16:29:51;9.80;60.81
9723;DHT22;4900;49.306;8.500;2023-02-11T16:32:54;9.74;60.94
9723;DHT22;4900;49.306;8.500;2023-02-11T16:35:58;9.65;61.16
9723;DHT22;4900;49.306;8.500;2023-02-11T16:39:04;9.59;61.28
9723;DHT22;4900;49.306;8.500;2023-02-11T16:42:07;9.52;61.23
9723;DHT22;4900;49.306;8.500;2023-02-11T16:45:10;9.46;61.33
9723;DHT22;4900;49.306;8.500;2023-02-11T16:48:16;9.41;61.50
9723;DHT22;4900;49.306;8.500;2023-02-11T16:51:20;9.32;61.65
9723;DHT22;4900;49.306;8.500;2023-02-11T16:54:23;9.27;61.81
9723;DHT22;4900;49.306;8.500;2023-02-11T16:57:26;9.21;62.42
9723;DHT22;4900;49.306;8.500;2023-02-11T17:00:29;9.13;62.21
9723;DHT22;4900;49.306;8.500;2023-02-11T17:03:33;9.08;62.19
9723;DHT22;4900;49.306;8.500;2023-02-11T17:06:42;9.03;62.40
9723;DHT22;4900;49.306;8.500;2023-02-11T17:09:45;8.97;62.71
9723;DHT22;4900;49.306;8.500;2023-02-11T17:12:49;8.93;62.67
9723;DHT22;4900;49.306;8.500;2023-02-11T17:15:53;8.85;62.76
9723;DHT22;4900;49.306;8.500;2023-02-11T17:18:56;8.80;62.89
9723;DHT22;4900;49.306;8.500;2023-02-11T17:21:59;8.77;63.01
9723;DHT22;4900;49.306;8.500;2023-02-11T17:25:02;8.72;63.08
9723;DHT22;4900;49.306;8.500;2023-02-11T17:28:07;8.65;63.18
9723;DHT22;4900;49.306;8.500;2023-02-11T17:31:11;8.61;63.20
9723;DHT22;4900;49.306;8.500;2023-02-11T17:34:15;8.56;63.26
9723;DHT22;4900;49.306;8.500;2023-02-11T17:37:18;8.54;63.19
9723;DHT22;4900;49.306;8.500;2023-02-11T17:40:22;8.48;63.38
9723;DHT22;4900;49.306;8.500;2023-02-11T17:43:25;8.48;64.03
9723;DHT22;4900;49.306;8.500;2023-02-11T17:46:28;8.44;64.83
9723;DHT22;4900;49.306;8.500;2023-02-11T17:49:32;8.42;64.75
9723;DHT22;4900;49.306;8.500;2023-02-11T17:52:35;8.38;64.49
9723;DHT22;4900;49.306;8.500;2023-02-11T17:55:40;8.35;64.43
9723;DHT22;4900;49.306;8.500;2023-02-11T17:58:43;8.33;64.28
9723;DHT22;4900;49.306;8.500;2023-02-11T18:01:46;8.28;64.56
9723;DHT22;4900;49.306;8.500;2023-02-11T18:04:49;8.27;64.60
9723;DHT22;4900;49.306;8.500;2023-02-11T18:07:56;8.24;64.80
9723;DHT22;4900;49.306;8.500;2023-02-11T18:11:00;8.20;65.25
9723;DHT22;4900;49.306;8.500;2023-02-11T18:14:04;8.17;65.35
9723;DHT22;4900;49.306;8.500;2023-02-11T18:17:09;8.17;65.96
9723;DHT22;4900;49.306;8.500;2023-02-11T18:20:13;8.16;65.90
9723;DHT22;4900;49.306;8.500;2023-02-11T18:23:16;8.14;66.24
9723;DHT22;4900;49.306;8.500;2023-02-11T18:26:20;8.12;66.29
9723;DHT22;4900;49.306;8.500;2023-02-11T18:29:23;8.12;66.08
9723;DHT22;4900;49.306;8.500;2023-02-11T18:32:27;8.10;66.35
9723;DHT22;4900;49.306;8.500;2023-02-11T18:35:30;8.09;66.79
9723;DHT22;4900;49.306;8.500;2023-02-11T18:38:34;8.07;67.33
9723;DHT22;4900;49.306;8.500;2023-02-11T18:41:37;8.06;67.06
9723;DHT22;4900;49.306;8.500;2023-02-11T18:44:43;8.05;67.04
9723;DHT22;4900;49.306;8.500;2023-02-11T18:47:46;8.00;66.73
9723;DHT22;4900;49.306;8.500;2023-02-11T18:50:49;8.00;66.29
9723;DHT22;4900;49.306;8.500;2023-02-11T18:53:53;7.95;66.14
9723;DHT22;4900;49.306;8.500;2023-02-11T18:56:56;7.93;66.32
9723;DHT22;4900;49.306;8.500;2023-02-11T18:59:59;7.93;66.30
9723;DHT22;4900;49.306;8.500;2023-02-11T19:03:02;7.89;66.89
9723;DHT22;4900;49.306;8.500;2023-02-11T19:06:06;7.85;66.31
9723;DHT22;4900;49.306;8.500;2023-02-11T19:09:10;7.82;66.17
9723;DHT22;4900;49.306;8.500;2023-02-11T19:12:16;7.77;67.12
9723;DHT22;4900;49.306;8.500;2023-02-11T19:15:19;7.72;67.88
9723;DHT22;4900;49.306;8.500;2023-02-11T19:18:22;7.69;67.76
9723;DHT22;4900;49.306;8.500;2023-02-11T19:21:25;7.65;67.49
9723;DHT22;4900;49.306;8.500;2023-02-11T19:24:29;7.63;67.55
9723;DHT22;4900;49.306;8.500;2023-02-11T19:27:33;7.61;67.12
9723;DHT22;4900;49.306;8.500;2023-02-11T19:30:36;7.58;67.26
9723;DHT22;4900;49.306;8.500;2023-02-11T19:33:39;7.54;67.43
9723;DHT22;4900;49.306;8.500;2023-02-11T19:36:42;7.55;68.45
9723;DHT22;4900;49.306;8.500;2023-02-11T19:39:45;7.51;69.00
9723;DHT22;4900;49.306;8.500;2023-02-11T19:42:48;7.52;69.35
9723;DHT22;4900;49.306;8.500;2023-02-11T19:45:52;7.51;69.45
9723;DHT22;4900;49.306;8.500;2023-02-11T19:49:00;7.51;69.32
9723;DHT22;4900;49.306;8.500;2023-02-11T19:52:03;7.47;69.62
9723;DHT22;4900;49.306;8.500;2023-02-11T19:55:07;7.38;70.22
9723;DHT22;4900;49.306;8.500;2023-02-11T19:58:10;7.43;69.64
9723;DHT22;4900;49.306;8.500;2023-02-11T20:01:19;7.41;69.24
9723;DHT22;4900;49.306;8.500;2023-02-11T20:04:23;7.38;69.24
9723;DHT22;4900;49.306;8.500;2023-02-11T20:07:27;7.35;69.82
9723;DHT22;4900;49.306;8.500;2023-02-11T20:10:31;7.33;70.32
9723;DHT22;4900;49.306;8.500;2023-02-11T20:13:37;7.31;70.46
9723;DHT22;4900;49.306;8.500;2023-02-11T20:16:40;7.28;69.49
9723;DHT22;4900;49.306;8.500;2023-02-11T20:19:46;7.23;69.37
9723;DHT22;4900;49.306;8.500;2023-02-11T20:22:50;7.23;69.39
9723;DHT22;4900;49.306;8.500;2023-02-11T20:25:54;7.19;69.52
9723;DHT22;4900;49.306;8.500;2023-02-11T20:28:58;7.16;69.56
9723;DHT22;4900;49.306;8.500;2023-02-11T20:32:05;7.15;69.78
9723;DHT22;4900;49.306;8.500;2023-02-11T20:35:08;7.12;69.81
9723;DHT22;4900;49.306;8.500;2023-02-11T20:38:12;7.10;69.70
9723;DHT22;4900;49.306;8.500;2023-02-11T20:41:18;7.10;69.87
9723;DHT22;4900;49.306;8.500;2023-02-11T20:44:22;7.07;70.20
9723;DHT22;4900;49.306;8.500;2023-02-11T20:47:25;7.06;70.59
9723;DHT22;4900;49.306;8.500;2023-02-11T20:50:28;7.06;70.56
9723;DHT22;4900;49.306;8.500;2023-02-11T20:53:39;7.06;70.48
9723;DHT22;4900;49.306;8.500;2023-02-11T20:56:44;7.05;70.85
9723;DHT22;4900;49.306;8.500;2023-02-11T20:59:47;7.02;70.83
9723;DHT22;4900;49.306;8.500;2023-02-11T21:02:51;7.02;70.68
9723;DHT22;4900;49.306;8.500;2023-02-11T21:05:57;7.03;70.87
9723;DHT22;4900;49.306;8.500;2023-02-11T21:09:05;7.02;70.74
9723;DHT22;4900;49.306;8.500;2023-02-11T21:12:08;6.98;70.86
9723;DHT22;4900;49.306;8.500;2023-02-11T21:15:11;6.99;71.18
9723;DHT22;4900;49.306;8.500;2023-02-11T21:18:15;7.00;71.49
9723;DHT22;4900;49.306;8.500;2023-02-11T21:21:19;7.02;71.80
9723;DHT22;4900;49.306;8.500;2023-02-11T21:24:23;7.02;71.87
9723;DHT22;4900;49.306;8.500;2023-02-11T21:27:26;7.05;71.98
9723;DHT22;4900;49.306;8.500;2023-02-11T21:30:37;7.03;72.26
9723;DHT22;4900;49.306;8.500;2023-02-11T21:33:40;7.06;72.48
9723;DHT22;4900;49.306;8.500;2023-02-11T21:36:43;7.07;72.48
9723;DHT22;4900;49.306;8.500;2023-02-11T21:39:46;7.07;72.51
9723;DHT22;4900;49.306;8.500;2023-02-11T21:42:50;7.06;72.63
9723;DHT22;4900;49.306;8.500;2023-02-11T21:45:53;7.07;72.41
9723;DHT22;4900;49.306;8.500;2023-02-11T21:48:56;7.09;72.37
9723;DHT22;4900;49.306;8.500;2023-02-11T21:51:59;7.07;72.37
9723;DHT22;4900;49.306;8.500;2023-02-11T21:55:03;7.05;72.10
9723;DHT22;4900;49.306;8.500;2023-02-11T21:58:07;7.03;72.42
9723;DHT22;4900;49.306;8.500;2023-02-11T22:01:13;7.05;71.73
9723;DHT22;4900;49.306;8.500;2023-02-11T22:04:16;7.02;71.54
9723;DHT22;4900;49.306;8.500;2023-02-11T22:07:20;7.03;71.10
9723;DHT22;4900;49.306;8.500;2023-02-11T22:10:24;7.02;71.05
9723;DHT22;4900;49.306;8.500;2023-02-11T22:13:27;6.98;71.22
9723;DHT22;4900;49.306;8.500;2023-02-11T22:16:30;6.99;71.05
9723;DHT22;4900;49.306;8.500;2023-02-11T22:19:36;6.95;71.06
9723;DHT22;4900;49.306;8.500;2023-02-11T22:22:39;6.93;71.22
9723;DHT22;4900;49.306;8.500;2023-02-11T22:25:42;6.92;71.11
9723;DHT22;4900;49.306;8.500;2023-02-11T22:28:45;6.91;70.80